sensor_id;sensor_type;location;lat;lon;timestamp;temperature;humidity
20574;DHT22;10445;50.216;7.912;2022-07-22T00:02:46;16.70;86.40
20574;DHT22;10445;50.216;7.912;2022-07-22T00:05:37;16.70;87.10
20574;DHT22;10445;50.216;7.912;2022-07-22T00:08:25;16.70;87.00
20574;DHT22;10445;50.216;7.912;2022-07-22T00:11:15;16.70;86.60
20574;DHT22;10445;50.216;7.912;2022-07-22T00:14:03;16.70;86.60
20574;DHT22;10445;50.216;7.912;2022-07-22T00:16:52;16.60;86.80
20574;DHT22;10445;50.216;7.912;2022-07-22T00:19:41;16.60;87.60
20574;DHT22;10445;50.216;7.912;2022-07-22T00:22:31;16.60;88.10
20574;DHT22;10445;50.216;7.912;2022-07-22T00:25:20;16.60;88.30
20574;DHT22;10445;50.216;7.912;2022-07-22T00:28:09;16.60;88.40
20574;DHT22;10445;50.216;7.912;2022-07-22T00:30:57;16.60;88.40
20574;DHT22;10445;50.216;7.912;2022-07-22T00:33:46;16.60;88.20
20574;DHT22;10445;50.216;7.912;2022-07-22T00:36:35;16.70;87.80
20574;DHT22;10445;50.216;7.912;2022-07-22T00:39:25;16.60;88.80
20574;DHT22;10445;50.216;7.912;2022-07-22T00:42:14;16.60;88.20
20574;DHT22;10445;50.216;7.912;2022-07-22T00:45:04;16.60;88.60
20574;DHT22;10445;50.216;7.912;2022-07-22T00:47:54;16.60;88.50
20574;DHT22;10445;50.216;7.912;2022-07-22T00:50:43;16.60;88.20
20574;DHT22;10445;50.216;7.912;2022-07-22T00:53:32;16.60;87.80
20574;DHT22;10445;50.216;7.912;2022-07-22T00:56:24;16.60;88.80
20574;DHT22;10445;50.216;7.912;2022-07-22T00:59:14;16.60;88.80
20574;DHT22;10445;50.216;7.912;2022-07-22T01:02:03;16.60;88.80
20574;DHT22;10445;50.216;7.912;2022-07-22T01:04:52;16.60;88.90
20574;DHT22;10445;50.216;7.912;2022-07-22T01:07:41;16.60;88.40
20574;DHT22;10445;50.216;7.912;2022-07-22T01:10:29;16.70;88.40
20574;DHT22;10445;50.216;7.912;2022-07-22T01:13:20;16.70;88.30
20574;DHT22;10445;50.216;7.912;2022-07-22T01:16:10;16.70;87.80
20574;DHT22;10445;50.216;7.912;2022-07-22T01:18:59;16.70;87.20
20574;DHT22;10445;50.216;7.912;2022-07-22T01:21:49;16.70;87.70
20574;DHT22;10445;50.216;7.912;2022-07-22T01:24:38;16.70;87.70
20574;DHT22;10445;50.216;7.912;2022-07-22T01:27:27;16.70;88.60
20574;DHT22;10445;50.216;7.912;2022-07-22T01:30:17;16.60;88.80
20574;DHT22;10445;50.216;7.912;2022-07-22T01:33:05;16.60;89.30
20574;DHT22;10445;50.216;7.912;2022-07-22T01:35:54;16.70;89.50
20574;DHT22;10445;50.216;7.912;2022-07-22T01:38:44;16.60;88.80
20574;DHT22;10445;50.216;7.912;2022-07-22T01:41:34;16.60;88.70
20574;DHT22;10445;50.216;7.912;2022-07-22T01:44:22;16.60;88.50
20574;DHT22;10445;50.216;7.912;2022-07-22T01:47:11;16.50;88.30
20574;DHT22;10445;50.216;7.912;2022-07-22T01:50:00;16.50;87.40
20574;DHT22;10445;50.216;7.912;2022-07-22T01:52:49;16.40;87.90
20574;DHT22;10445;50.216;7.912;2022-07-22T01:55:41;16.40;88.70
20574;DHT22;10445;50.216;7.912;2022-07-22T01:58:30;16.40;88.70
20574;DHT22;10445;50.216;7.912;2022-07-22T02:01:26;16.40;88.20
20574;DHT22;10445;50.216;7.912;2022-07-22T02:04:15;16.40;87.80
20574;DHT22;10445;50.216;7.912;2022-07-22T02:07:10;16.30;87.10
20574;DHT22;10445;50.216;7.912;2022-07-22T02:09:59;16.30;85.70
20574;DHT22;10445;50.216;7.912;2022-07-22T02:12:49;16.30;85.10
20574;DHT22;10445;50.216;7.912;2022-07-22T02:15:38;16.30;85.00
20574;DHT22;10445;50.216;7.912;2022-07-22T02:18:26;16.30;85.30
20574;DHT22;10445;50.216;7.912;2022-07-22T02:21:15;16.30;86.10
20574;DHT22;10445;50.216;7.912;2022-07-22T02:24:05;16.30;85.60
20574;DHT22;10445;50.216;7.912;2022-07-22T02:26:53;16.30;84.70
20574;DHT22;10445;50.216;7.912;2022-07-22T02:29:45;16.30;83.80
20574;DHT22;10445;50.216;7.912;2022-07-22T02:32:34;16.30;83.50
20574;DHT22;10445;50.216;7.912;2022-07-22T02:35:23;16.30;82.60
20574;DHT22;10445;50.216;7.912;2022-07-22T02:38:13;16.30;83.00
20574;DHT22;10445;50.216;7.912;2022-07-22T02:41:02;16.30;82.80
20574;DHT22;10445;50.216;7.912;2022-07-22T02:43:51;16.30;82.80
20574;DHT22;10445;50.216;7.912;2022-07-22T02:46:43;16.30;82.50
20574;DHT22;10445;50.216;7.912;2022-07-22T02:49:32;16.30;83.60
20574;DHT22;10445;50.216;7.912;2022-07-22T02:52:21;16.30;83.30
20574;DHT22;10445;50.216;7.912;2022-07-22T02:55:10;16.40;82.20
20574;DHT22;10445;50.216;7.912;2022-07-22T02:58:04;16.30;82.50
20574;DHT22;10445;50.216;7.912;2022-07-22T03:00:53;16.20;82.50
20574;DHT22;10445;50.216;7.912;2022-07-22T03:03:43;16.20;83.10
20574;DHT22;10445;50.216;7.912;2022-07-22T03:06:32;16.20;82.80
20574;DHT22;10445;50.216;7.912;2022-07-22T03:09:21;16.30;81.90
20574;DHT22;10445;50.216;7.912;2022-07-22T03:12:10;16.20;80.90
20574;DHT22;10445;50.216;7.912;2022-07-22T03:14:59;16.30;81.20
20574;DHT22;10445;50.216;7.912;2022-07-22T03:17:47;16.40;80.70
20574;DHT22;10445;50.216;7.912;2022-07-22T03:20:38;16.40;80.20
20574;DHT22;10445;50.216;7.912;2022-07-22T03:23:26;16.40;79.70
20574;DHT22;10445;50.216;7.912;2022-07-22T03:26:15;16.40;80.00
20574;DHT22;10445;50.216;7.912;2022-07-22T03:29:04;16.40;79.40
20574;DHT22;10445;50.216;7.912;2022-07-22T03:31:53;16.40;79.50
20574;DHT22;10445;50.216;7.912;2022-07-22T03:34:42;16.40;79.20
20574;DHT22;10445;50.216;7.912;2022-07-22T03:37:32;16.40;79.30
20574;DHT22;10445;50.216;7.912;2022-07-22T03:40:21;16.40;79.20
20574;DHT22;10445;50.216;7.912;2022-07-22T03:43:09;16.40;80.20
20574;DHT22;10445;50.216;7.912;2022-07-22T03:45:58;16.40;78.80
20574;DHT22;10445;50.216;7.912;2022-07-22T03:48:47;16.40;78.80
20574;DHT22;10445;50.216;7.912;2022-07-22T03:51:36;16.40;78.70
20574;DHT22;10445;50.216;7.912;2022-07-22T03:54:26;16.30;79.50
20574;DHT22;10445;50.216;7.912;2022-07-22T03:57:15;16.40;79.70
20574;DHT22;10445;50.216;7.912;2022-07-22T04:00:05;16.30;80.00
20574;DHT22;10445;50.216;7.912;2022-07-22T04:02:53;16.30;80.40
20574;DHT22;10445;50.216;7.912;2022-07-22T04:05:42;16.40;80.80
20574;DHT22;10445;50.216;7.912;2022-07-22T04:08:32;16.40;80.90
20574;DHT22;10445;50.216;7.912;2022-07-22T04:11:22;16.40;80.10
20574;DHT22;10445;50.216;7.912;2022-07-22T04:14:11;16.40;80.00
20574;DHT22;10445;50.216;7.912;2022-07-22T04:16:59;16.40;79.80
20574;DHT22;10445;50.216;7.912;2022-07-22T04:19:48;16.40;80.20
20574;DHT22;10445;50.216;7.912;2022-07-22T04:22:37;16.40;80.10
20574;DHT22;10445;50.216;7.912;2022-07-22T04:25:26;16.40;80.10
20574;DHT22;10445;50.216;7.912;2022-07-22T04:28:16;16.40;80.20
20574;DHT22;10445;50.216;7.912;2022-07-22T04:31:05;16.40;80.80
20574;DHT22;10445;50.216;7.912;2022-07-22T04:33:54;16.40;80.50
20574;DHT22;10445;50.216;7.912;2022-07-22T04:36:43;16.40;80.30
20574;DHT22;10445;50.216;7.912;2022-07-22T04:39:31;16.40;81.80
20574;DHT22;10445;50.216;7.912;2022-07-22T04:42:20;16.40;82.40
20574;DHT22;10445;50.216;7.912;2022-07-22T04:45:11;16.40;82.60
20574;DHT22;10445;50.216;7.912;2022-07-22T04:48:00;16.40;82.10
20574;DHT22;10445;50.216;7.912;2022-07-22T04:50:48;16.40;82.20
20574;DHT22;10445;50.216;7.912;2022-07-22T04:53:37;16.50;82.80
20574;DHT22;10445;50.216;7.912;2022-07-22T04:56:34;16.50;82.10
20574;DHT22;10445;50.216;7.912;2022-07-22T04:59:23;16.50;82.30
20574;DHT22;10445;50.216;7.912;2022-07-22T05:02:14;16.60;81.40
20574;DHT22;10445;50.216;7.912;2022-07-22T05:05:03;16.50;81.10
20574;DHT22;10445;50.216;7.912;2022-07-22T05:07:52;16.60;81.30
20574;DHT22;10445;50.216;7.912;2022-07-22T05:10:40;16.60;80.40
20574;DHT22;10445;50.216;7.912;2022-07-22T05:13:29;16.60;80.20
20574;DHT22;10445;50.216;7.912;2022-07-22T05:16:18;16.70;80.20
20574;DHT22;10445;50.216;7.912;2022-07-22T05:19:08;16.70;79.70
20574;DHT22;10445;50.216;7.912;2022-07-22T05:21:57;16.70;79.70
20574;DHT22;10445;50.216;7.912;2022-07-22T05:24:45;16.70;79.20
20574;DHT22;10445;50.216;7.912;2022-07-22T05:27:34;16.80;78.00
20574;DHT22;10445;50.216;7.912;2022-07-22T05:30:23;16.80;78.80
20574;DHT22;10445;50.216;7.912;2022-07-22T05:33:13;16.80;78.50
20574;DHT22;10445;50.216;7.912;2022-07-22T05:36:04;16.80;78.30
20574;DHT22;10445;50.216;7.912;2022-07-22T05:38:52;16.80;78.00
20574;DHT22;10445;50.216;7.912;2022-07-22T05:41:42;16.80;78.30
20574;DHT22;10445;50.216;7.912;2022-07-22T05:44:30;16.80;77.90
20574;DHT22;10445;50.216;7.912;2022-07-22T05:47:19;16.80;78.00
20574;DHT22;10445;50.216;7.912;2022-07-22T05:50:09;16.90;78.50
20574;DHT22;10445;50.216;7.912;2022-07-22T05:52:59;17.00;76.50
20574;DHT22;10445;50.216;7.912;2022-07-22T05:55:48;17.00;75.40
20574;DHT22;10445;50.216;7.912;2022-07-22T05:58:37;17.00;69.60
20574;DHT22;10445;50.216;7.912;2022-07-22T06:01:26;17.00;66.40
20574;DHT22;10445;50.216;7.912;2022-07-22T06:04:15;17.00;66.80
20574;DHT22;10445;50.216;7.912;2022-07-22T06:07:04;17.20;64.90
20574;DHT22;10445;50.216;7.912;2022-07-22T06:09:55;17.20;64.30
20574;DHT22;10445;50.216;7.912;2022-07-22T06:12:43;17.30;65.40
20574;DHT22;10445;50.216;7.912;2022-07-22T06:15:32;17.30;68.10
20574;DHT22;10445;50.216;7.912;2022-07-22T06:18:21;17.30;70.00
20574;DHT22;10445;50.216;7.912;2022-07-22T06:21:10;17.40;68.70
20574;DHT22;10445;50.216;7.912;2022-07-22T06:23:58;17.40;65.50
20574;DHT22;10445;50.216;7.912;2022-07-22T06:26:49;17.40;67.00
20574;DHT22;10445;50.216;7.912;2022-07-22T06:29:38;17.40;67.90
20574;DHT22;10445;50.216;7.912;2022-07-22T06:32:27;17.40;67.30
20574;DHT22;10445;50.216;7.912;2022-07-22T06:35:16;17.50;67.90
20574;DHT22;10445;50.216;7.912;2022-07-22T06:38:05;17.50;67.70
20574;DHT22;10445;50.216;7.912;2022-07-22T06:40:54;17.50;68.20
20574;DHT22;10445;50.216;7.912;2022-07-22T06:43:44;17.50;69.00
20574;DHT22;10445;50.216;7.912;2022-07-22T06:46:33;17.60;68.20
20574;DHT22;10445;50.216;7.912;2022-07-22T06:49:24;17.70;67.50
20574;DHT22;10445;50.216;7.912;2022-07-22T06:52:13;17.90;64.30
20574;DHT22;10445;50.216;7.912;2022-07-22T06:55:02;17.90;62.20
20574;DHT22;10445;50.216;7.912;2022-07-22T06:57:50;18.00;62.40
20574;DHT22;10445;50.216;7.912;2022-07-22T07:00:40;18.10;60.60
20574;DHT22;10445;50.216;7.912;2022-07-22T07:03:29;18.40;60.50
20574;DHT22;10445;50.216;7.912;2022-07-22T07:06:22;18.80;54.10
20574;DHT22;10445;50.216;7.912;2022-07-22T07:09:11;19.10;50.40
20574;DHT22;10445;50.216;7.912;2022-07-22T07:12:00;19.40;43.70
20574;DHT22;10445;50.216;7.912;2022-07-22T07:14:49;19.50;38.10
20574;DHT22;10445;50.216;7.912;2022-07-22T07:17:59;19.60;35.50
20574;DHT22;10445;50.216;7.912;2022-07-22T07:20:48;19.60;34.50
20574;DHT22;10445;50.216;7.912;2022-07-22T07:23:37;19.60;32.60
20574;DHT22;10445;50.216;7.912;2022-07-22T07:26:26;19.50;32.10
20574;DHT22;10445;50.216;7.912;2022-07-22T07:29:14;19.30;36.00
20574;DHT22;10445;50.216;7.912;2022-07-22T07:32:10;19.30;35.70
20574;DHT22;10445;50.216;7.912;2022-07-22T07:35:01;19.40;27.60
20574;DHT22;10445;50.216;7.912;2022-07-22T07:37:49;19.50;32.70
20574;DHT22;10445;50.216;7.912;2022-07-22T07:40:38;19.60;24.80
20574;DHT22;10445;50.216;7.912;2022-07-22T07:43:27;19.50;22.40
20574;DHT22;10445;50.216;7.912;2022-07-22T07:46:16;19.50;24.30
20574;DHT22;10445;50.216;7.912;2022-07-22T07:49:05;19.50;25.10
20574;DHT22;10445;50.216;7.912;2022-07-22T07:51:55;19.50;23.90
20574;DHT22;10445;50.216;7.912;2022-07-22T07:54:44;19.60;24.00
20574;DHT22;10445;50.216;7.912;2022-07-22T07:57:53;19.70;23.60
20574;DHT22;10445;50.216;7.912;2022-07-22T08:00:41;19.90;29.80
20574;DHT22;10445;50.216;7.912;2022-07-22T08:03:30;20.00;26.10
20574;DHT22;10445;50.216;7.912;2022-07-22T08:06:19;20.20;23.40
20574;DHT22;10445;50.216;7.912;2022-07-22T08:09:10;20.20;16.90
20574;DHT22;10445;50.216;7.912;2022-07-22T08:11:58;20.10;18.90
20574;DHT22;10445;50.216;7.912;2022-07-22T08:14:48;20.10;22.10
20574;DHT22;10445;50.216;7.912;2022-07-22T08:17:37;20.40;24.00
20574;DHT22;10445;50.216;7.912;2022-07-22T08:20:28;20.70;19.50
20574;DHT22;10445;50.216;7.912;2022-07-22T08:23:17;20.70;16.30
20574;DHT22;10445;50.216;7.912;2022-07-22T08:26:07;20.70;12.90
20574;DHT22;10445;50.216;7.912;2022-07-22T08:28:57;20.60;12.10
20574;DHT22;10445;50.216;7.912;2022-07-22T08:31:46;20.60;14.40
20574;DHT22;10445;50.216;7.912;2022-07-22T08:34:35;20.70;13.20
20574;DHT22;10445;50.216;7.912;2022-07-22T08:37:24;21.00;14.20
20574;DHT22;10445;50.216;7.912;2022-07-22T08:44:22;21.10;8.70
20574;DHT22;10445;50.216;7.912;2022-07-22T08:47:11;21.30;6.30
20574;DHT22;10445;50.216;7.912;2022-07-22T08:50:20;21.40;9.30
20574;DHT22;10445;50.216;7.912;2022-07-22T08:53:09;21.60;5.70
20574;DHT22;10445;50.216;7.912;2022-07-22T08:55:59;21.70;5.30
20574;DHT22;10445;50.216;7.912;2022-07-22T08:58:48;21.80;4.40
20574;DHT22;10445;50.216;7.912;2022-07-22T09:01:39;21.80;3.20
20574;DHT22;10445;50.216;7.912;2022-07-22T09:04:54;21.60;2.50
20574;DHT22;10445;50.216;7.912;2022-07-22T09:07:44;21.70;3.30
20574;DHT22;10445;50.216;7.912;2022-07-22T09:10:35;21.70;3.60
20574;DHT22;10445;50.216;7.912;2022-07-22T09:13:24;21.60;1.00
20574;DHT22;10445;50.216;7.912;2022-07-22T09:16:14;21.60;3.50
20574;DHT22;10445;50.216;7.912;2022-07-22T09:19:04;21.80;1.00
20574;DHT22;10445;50.216;7.912;2022-07-22T09:21:53;21.80;1.00
20574;DHT22;10445;50.216;7.912;2022-07-22T09:24:44;21.80;1.00
20574;DHT22;10445;50.216;7.912;2022-07-22T09:27:33;22.10;1.00
20574;DHT22;10445;50.216;7.912;2022-07-22T09:30:23;22.40;1.00
20574;DHT22;10445;50.216;7.912;2022-07-22T09:33:14;22.30;1.00
20574;DHT22;10445;50.216;7.912;2022-07-22T09:36:06;22.10;1.00
20574;DHT22;10445;50.216;7.912;2022-07-22T09:38:55;22.20;1.00
20574;DHT22;10445;50.216;7.912;2022-07-22T09:41:57;22.70;1.00
20574;DHT22;10445;50.216;7.912;2022-07-22T09:44:49;23.20;1.00
20574;DHT22;10445;50.216;7.912;2022-07-22T09:47:41;23.40;1.00
20574;DHT22;10445;50.216;7.912;2022-07-22T09:50:32;23.80;1.00
20574;DHT22;10445;50.216;7.912;2022-07-22T09:53:26;24.00;1.00
20574;DHT22;10445;50.216;7.912;2022-07-22T09:56:18;24.00;1.00
20574;DHT22;10445;50.216;7.912;2022-07-22T09:59:07;23.90;1.00
20574;DHT22;10445;50.216;7.912;2022-07-22T10:01:58;23.80;1.00
20574;DHT22;10445;50.216;7.912;2022-07-22T10:04:51;23.80;1.00
20574;DHT22;10445;50.216;7.912;2022-07-22T10:07:42;23.80;1.00
20574;DHT22;10445;50.216;7.912;2022-07-22T10:10:35;23.90;1.00
20574;DHT22;10445;50.216;7.912;2022-07-22T10:13:24;23.90;1.00
20574;DHT22;10445;50.216;7.912;2022-07-22T10:16:14;24.00;1.00
20574;DHT22;10445;50.216;7.912;2022-07-22T10:19:03;24.10;1.00
20574;DHT22;10445;50.216;7.912;2022-07-22T10:21:52;24.00;1.00
20574;DHT22;10445;50.216;7.912;2022-07-22T10:24:59;23.90;1.00
20574;DHT22;10445;50.216;7.912;2022-07-22T10:27:51;24.00;1.00
20574;DHT22;10445;50.216;7.912;2022-07-22T10:30:41;24.00;1.00
20574;DHT22;10445;50.216;7.912;2022-07-22T10:33:31;24.20;1.00
20574;DHT22;10445;50.216;7.912;2022-07-22T10:36:33;24.30;1.00
20574;DHT22;10445;50.216;7.912;2022-07-22T10:39:22;24.30;1.00
20574;DHT22;10445;50.216;7.912;2022-07-22T10:42:17;24.30;1.00
20574;DHT22;10445;50.216;7.912;2022-07-22T10:45:08;24.30;1.00
20574;DHT22;10445;50.216;7.912;2022-07-22T10:47:59;24.00;1.00
20574;DHT22;10445;50.216;7.912;2022-07-22T10:50:52;24.00;1.00
20574;DHT22;10445;50.216;7.912;2022-07-22T10:53:49;24.00;1.00
20574;DHT22;10445;50.216;7.912;2022-07-22T10:56:42;24.00;1.00
20574;DHT22;10445;50.216;7.912;2022-07-22T10:59:31;24.10;1.00
20574;DHT22;10445;50.216;7.912;2022-07-22T11:02:22;24.10;1.00
20574;DHT22;10445;50.216;7.912;2022-07-22T11:05:12;24.20;1.00
20574;DHT22;10445;50.216;7.912;2022-07-22T11:08:08;24.30;1.00
20574;DHT22;10445;50.216;7.912;2022-07-22T11:10:58;24.60;1.00
20574;DHT22;10445;50.216;7.912;2022-07-22T11:13:47;24.50;1.00
20574;DHT22;10445;50.216;7.912;2022-07-22T11:16:35;24.50;1.00
20574;DHT22;10445;50.216;7.912;2022-07-22T11:19:27;24.60;1.00
20574;DHT22;10445;50.216;7.912;2022-07-22T11:22:16;24.60;1.00
20574;DHT22;10445;50.216;7.912;2022-07-22T11:25:07;24.50;1.00
20574;DHT22;10445;50.216;7.912;2022-07-22T11:27:56;24.60;1.00
20574;DHT22;10445;50.216;7.912;2022-07-22T11:30:46;24.80;1.00
20574;DHT22;10445;50.216;7.912;2022-07-22T11:34:04;24.90;1.00
20574;DHT22;10445;50.216;7.912;2022-07-22T11:36:58;25.10;1.00
20574;DHT22;10445;50.216;7.912;2022-07-22T11:39:46;25.30;1.00
20574;DHT22;10445;50.216;7.912;2022-07-22T11:42:35;25.30;1.00
20574;DHT22;10445;50.216;7.912;2022-07-22T11:45:25;25.50;1.00
20574;DHT22;10445;50.216;7.912;2022-07-22T11:48:13;25.50;1.00
20574;DHT22;10445;50.216;7.912;2022-07-22T11:51:03;25.60;1.00
20574;DHT22;10445;50.216;7.912;2022-07-22T11:53:54;25.30;1.00
20574;DHT22;10445;50.216;7.912;2022-07-22T11:56:43;25.20;1.00
20574;DHT22;10445;50.216;7.912;2022-07-22T11:59:33;25.40;1.00
20574;DHT22;10445;50.216;7.912;2022-07-22T12:02:23;25.90;1.00
20574;DHT22;10445;50.216;7.912;2022-07-22T12:05:13;26.60;1.00
20574;DHT22;10445;50.216;7.912;2022-07-22T12:08:18;27.20;1.00
20574;DHT22;10445;50.216;7.912;2022-07-22T12:11:09;27.70;1.00
20574;DHT22;10445;50.216;7.912;2022-07-22T12:14:05;28.00;1.00
20574;DHT22;10445;50.216;7.912;2022-07-22T12:17:04;28.40;1.00
20574;DHT22;10445;50.216;7.912;2022-07-22T12:19:53;29.00;1.00
20574;DHT22;10445;50.216;7.912;2022-07-22T12:22:45;29.20;1.00
20574;DHT22;10445;50.216;7.912;2022-07-22T12:25:49;29.20;1.00
20574;DHT22;10445;50.216;7.912;2022-07-22T12:28:40;28.80;1.00
20574;DHT22;10445;50.216;7.912;2022-07-22T12:31:29;28.40;1.00
20574;DHT22;10445;50.216;7.912;2022-07-22T12:34:32;28.40;1.00
20574;DHT22;10445;50.216;7.912;2022-07-22T12:37:22;28.40;1.00
20574;DHT22;10445;50.216;7.912;2022-07-22T12:40:17;28.00;1.00
20574;DHT22;10445;50.216;7.912;2022-07-22T12:43:09;27.70;1.00
20574;DHT22;10445;50.216;7.912;2022-07-22T12:46:02;27.40;1.00
20574;DHT22;10445;50.216;7.912;2022-07-22T12:48:53;26.90;1.00
20574;DHT22;10445;50.216;7.912;2022-07-22T12:52:09;26.90;1.00
20574;DHT22;10445;50.216;7.912;2022-07-22T12:55:00;26.80;1.00
20574;DHT22;10445;50.216;7.912;2022-07-22T12:57:49;26.60;1.00
20574;DHT22;10445;50.216;7.912;2022-07-22T13:00:39;26.80;1.00
20574;DHT22;10445;50.216;7.912;2022-07-22T13:03:30;27.00;1.00
20574;DHT22;10445;50.216;7.912;2022-07-22T13:06:20;27.00;1.00
20574;DHT22;10445;50.216;7.912;2022-07-22T13:09:09;27.10;1.00
20574;DHT22;10445;50.216;7.912;2022-07-22T13:12:04;27.10;1.00
20574;DHT22;10445;50.216;7.912;2022-07-22T13:14:53;27.10;1.00
20574;DHT22;10445;50.216;7.912;2022-07-22T13:17:44;27.20;1.00
20574;DHT22;10445;50.216;7.912;2022-07-22T13:20:34;27.20;1.00
20574;DHT22;10445;50.216;7.912;2022-07-22T13:23:23;27.20;1.00
20574;DHT22;10445;50.216;7.912;2022-07-22T13:26:12;27.00;1.00
20574;DHT22;10445;50.216;7.912;2022-07-22T13:29:04;27.00;1.00
20574;DHT22;10445;50.216;7.912;2022-07-22T13:31:52;27.00;1.00
20574;DHT22;10445;50.216;7.912;2022-07-22T13:35:01;27.20;1.00
20574;DHT22;10445;50.216;7.912;2022-07-22T13:37:51;27.10;1.00
20574;DHT22;10445;50.216;7.912;2022-07-22T13:40:40;27.20;1.00
20574;DHT22;10445;50.216;7.912;2022-07-22T13:43:29;27.20;1.00
20574;DHT22;10445;50.216;7.912;2022-07-22T13:46:20;27.20;1.00
20574;DHT22;10445;50.216;7.912;2022-07-22T13:49:09;27.20;1.00
20574;DHT22;10445;50.216;7.912;2022-07-22T13:51:58;27.20;1.00
20574;DHT22;10445;50.216;7.912;2022-07-22T13:54:48;27.30;1.00
20574;DHT22;10445;50.216;7.912;2022-07-22T13:57:39;27.40;1.00
20574;DHT22;10445;50.216;7.912;2022-07-22T14:00:29;27.40;1.00
20574;DHT22;10445;50.216;7.912;2022-07-22T14:03:17;27.50;1.00
20574;DHT22;10445;50.216;7.912;2022-07-22T14:06:06;27.60;1.00
20574;DHT22;10445;50.216;7.912;2022-07-22T14:08:58;27.70;1.00
20574;DHT22;10445;50.216;7.912;2022-07-22T14:11:48;27.60;1.00
20574;DHT22;10445;50.216;7.912;2022-07-22T14:14:37;27.60;1.00
20574;DHT22;10445;50.216;7.912;2022-07-22T14:17:26;27.50;1.00
20574;DHT22;10445;50.216;7.912;2022-07-22T14:20:17;27.50;1.00
20574;DHT22;10445;50.216;7.912;2022-07-22T14:23:07;27.60;1.00
20574;DHT22;10445;50.216;7.912;2022-07-22T14:25:56;27.80;1.00
20574;DHT22;10445;50.216;7.912;2022-07-22T14:28:48;27.90;1.00
20574;DHT22;10445;50.216;7.912;2022-07-22T14:31:37;28.00;1.00
20574;DHT22;10445;50.216;7.912;2022-07-22T14:34:26;28.00;1.00
20574;DHT22;10445;50.216;7.912;2022-07-22T14:37:15;28.10;1.00
20574;DHT22;10445;50.216;7.912;2022-07-22T14:40:04;28.10;1.00
20574;DHT22;10445;50.216;7.912;2022-07-22T14:42:53;28.00;1.00
20574;DHT22;10445;50.216;7.912;2022-07-22T14:46:04;28.00;1.00
20574;DHT22;10445;50.216;7.912;2022-07-22T14:48:54;28.00;1.00
20574;DHT22;10445;50.216;7.912;2022-07-22T14:51:44;27.80;1.00
20574;DHT22;10445;50.216;7.912;2022-07-22T14:54:32;27.70;1.00
20574;DHT22;10445;50.216;7.912;2022-07-22T14:57:21;27.70;1.00
20574;DHT22;10445;50.216;7.912;2022-07-22T15:00:10;27.60;1.00
20574;DHT22;10445;50.216;7.912;2022-07-22T15:03:01;27.60;1.00
20574;DHT22;10445;50.216;7.912;2022-07-22T15:05:50;27.60;1.00
20574;DHT22;10445;50.216;7.912;2022-07-22T15:08:38;27.70;1.00
20574;DHT22;10445;50.216;7.912;2022-07-22T15:11:27;27.80;1.00
20574;DHT22;10445;50.216;7.912;2022-07-22T15:14:16;27.80;1.00
20574;DHT22;10445;50.216;7.912;2022-07-22T15:17:07;27.60;1.00
20574;DHT22;10445;50.216;7.912;2022-07-22T15:19:58;27.60;1.00
20574;DHT22;10445;50.216;7.912;2022-07-22T15:22:46;27.60;1.00
20574;DHT22;10445;50.216;7.912;2022-07-22T15:25:35;27.50;1.00
20574;DHT22;10445;50.216;7.912;2022-07-22T15:28:26;27.20;1.00
20574;DHT22;10445;50.216;7.912;2022-07-22T15:31:20;27.40;1.00
20574;DHT22;10445;50.216;7.912;2022-07-22T15:34:09;27.40;1.00
20574;DHT22;10445;50.216;7.912;2022-07-22T15:37:00;27.30;1.00
20574;DHT22;10445;50.216;7.912;2022-07-22T15:39:48;27.20;1.00
20574;DHT22;10445;50.216;7.912;2022-07-22T15:42:37;27.20;1.00
20574;DHT22;10445;50.216;7.912;2022-07-22T15:45:28;27.20;1.00
20574;DHT22;10445;50.216;7.912;2022-07-22T15:48:19;27.10;1.00
20574;DHT22;10445;50.216;7.912;2022-07-22T15:51:09;27.20;1.00
20574;DHT22;10445;50.216;7.912;2022-07-22T15:53:59;27.10;1.00
20574;DHT22;10445;50.216;7.912;2022-07-22T15:56:48;27.00;1.00
20574;DHT22;10445;50.216;7.912;2022-07-22T15:59:37;26.80;1.00
20574;DHT22;10445;50.216;7.912;2022-07-22T16:02:28;26.70;1.00
20574;DHT22;10445;50.216;7.912;2022-07-22T16:05:16;26.50;1.00
20574;DHT22;10445;50.216;7.912;2022-07-22T16:08:06;26.30;1.00
20574;DHT22;10445;50.216;7.912;2022-07-22T16:10:58;26.30;1.00
20574;DHT22;10445;50.216;7.912;2022-07-22T16:13:47;26.30;1.00
20574;DHT22;10445;50.216;7.912;2022-07-22T16:16:35;26.20;1.00
20574;DHT22;10445;50.216;7.912;2022-07-22T16:19:24;26.10;1.00
20574;DHT22;10445;50.216;7.912;2022-07-22T16:22:13;26.00;1.00
20574;DHT22;10445;50.216;7.912;2022-07-22T16:25:03;25.80;1.00
20574;DHT22;10445;50.216;7.912;2022-07-22T16:27:53;25.80;1.00
20574;DHT22;10445;50.216;7.912;2022-07-22T16:30:42;25.90;1.00
20574;DHT22;10445;50.216;7.912;2022-07-22T16:33:30;25.80;1.00
20574;DHT22;10445;50.216;7.912;2022-07-22T16:36:20;25.70;1.00
20574;DHT22;10445;50.216;7.912;2022-07-22T16:39:09;25.70;1.00
20574;DHT22;10445;50.216;7.912;2022-07-22T16:41:58;25.60;1.00
20574;DHT22;10445;50.216;7.912;2022-07-22T16:44:48;25.60;1.00
20574;DHT22;10445;50.216;7.912;2022-07-22T16:47:37;25.50;1.00
20574;DHT22;10445;50.216;7.912;2022-07-22T16:50:26;25.40;1.00
20574;DHT22;10445;50.216;7.912;2022-07-22T16:53:15;25.30;1.00
20574;DHT22;10445;50.216;7.912;2022-07-22T16:56:05;25.30;1.00
20574;DHT22;10445;50.216;7.912;2022-07-22T16:58:53;25.30;1.00
20574;DHT22;10445;50.216;7.912;2022-07-22T17:01:44;25.20;1.00
20574;DHT22;10445;50.216;7.912;2022-07-22T17:04:34;25.10;1.00
20574;DHT22;10445;50.216;7.912;2022-07-22T17:07:23;25.00;1.00
20574;DHT22;10445;50.216;7.912;2022-07-22T17:10:11;24.90;1.00
20574;DHT22;10445;50.216;7.912;2022-07-22T17:13:00;24.70;1.00
20574;DHT22;10445;50.216;7.912;2022-07-22T17:16:09;24.60;1.00
20574;DHT22;10445;50.216;7.912;2022-07-22T17:18:59;24.50;1.00
20574;DHT22;10445;50.216;7.912;2022-07-22T17:21:48;24.50;1.00
20574;DHT22;10445;50.216;7.912;2022-07-22T17:24:37;24.40;1.00
20574;DHT22;10445;50.216;7.912;2022-07-22T17:27:26;24.40;1.00
20574;DHT22;10445;50.216;7.912;2022-07-22T17:30:14;24.40;1.00
20574;DHT22;10445;50.216;7.912;2022-07-22T17:33:03;24.40;1.00
20574;DHT22;10445;50.216;7.912;2022-07-22T17:35:59;24.30;1.00
20574;DHT22;10445;50.216;7.912;2022-07-22T17:38:48;24.20;1.00
20574;DHT22;10445;50.216;7.912;2022-07-22T17:41:38;24.10;1.00
20574;DHT22;10445;50.216;7.912;2022-07-22T17:44:27;24.00;1.00
20574;DHT22;10445;50.216;7.912;2022-07-22T17:47:16;23.90;1.00
20574;DHT22;10445;50.216;7.912;2022-07-22T17:50:07;23.90;1.00
20574;DHT22;10445;50.216;7.912;2022-07-22T17:52:58;23.90;1.00
20574;DHT22;10445;50.216;7.912;2022-07-22T17:55:47;23.90;1.00
20574;DHT22;10445;50.216;7.912;2022-07-22T17:58:56;23.90;1.00
20574;DHT22;10445;50.216;7.912;2022-07-22T18:01:45;23.90;1.00
20574;DHT22;10445;50.216;7.912;2022-07-22T18:04:34;23.90;1.00
20574;DHT22;10445;50.216;7.912;2022-07-22T18:07:23;23.90;1.00
20574;DHT22;10445;50.216;7.912;2022-07-22T18:10:14;23.80;1.00
20574;DHT22;10445;50.216;7.912;2022-07-22T18:13:03;23.70;1.00